Time;durP1;ratioP1;P1;durP2;ratioP2;P2;SDS_P1;SDS_P2;PMS_P1;PMS_P2;Temp;Humidity;BMP_temperature;BMP_pressure;BME280_temperature;BME280_humidity;BME280_pressure;Samples;Min_cycle;Max_cycle;Signal;HPM_P1;HPM_P2
2024/01/07 00:19:40;;;;;;;0.63;0.50;;;;;;;6.93;100.00;100661.66;6158428;22;20029;-91
2024/01/07 00:27:17;;;;;;;1.42;0.93;;;;;;;6.96;100.00;100666.03;6158933;23;20458;-90
2024/01/07 00:29:47;;;;;;;1.77;1.10;;;;;;;7.03;100.00;100672.31;6167588;23;20021;-92
2024/01/07 00:34:56;;;;;;;0.88;0.70;;;;;;;6.95;100.00;100671.13;6147838;23;20022;-92
2024/01/07 00:37:26;;;;;;;1.63;0.80;;;;;;;6.88;100.00;100681.16;6157683;23;20017;-92
2024/01/07 00:39:56;;;;;;;1.05;0.80;;;;;;;6.88;100.00;100691.44;6163701;23;20025;-92
2024/01/07 00:42:32;;;;;;;1.35;0.95;;;;;;;6.87;100.00;100689.69;6163786;23;20117;-91
2024/01/07 00:58:35;;;;;;;1.58;1.15;;;;;;;7.01;100.00;100717.69;6160456;23;21085;-94
2024/01/07 01:01:04;;;;;;;2.50;1.13;;;;;;;7.03;100.00;100734.06;6158025;23;20159;-91
2024/01/07 01:19:24;;;;;;;1.45;0.85;;;;;;;6.48;100.00;100706.78;6152424;23;20056;-86
2024/01/07 01:21:56;;;;;;;4.88;1.08;;;;;;;6.48;100.00;100702.56;6151950;23;20520;-87
2024/01/07 01:24:28;;;;;;;3.30;1.05;;;;;;;6.38;100.00;100690.09;6153310;23;20049;-91
2024/01/07 01:26:57;;;;;;;0.70;0.45;;;;;;;6.18;100.00;100685.72;6152586;23;20014;-87
2024/01/07 01:29:27;;;;;;;0.63;0.60;;;;;;;6.16;100.00;100692.47;6159587;23;20040;-91
2024/01/07 01:37:14;;;;;;;1.02;0.50;;;;;;;6.17;100.00;100681.41;6196273;23;20015;-91
2024/01/07 01:39:49;;;;;;;0.65;0.40;;;;;;;6.23;100.00;100699.66;6130319;23;20034;-92
2024/01/07 01:42:22;;;;;;;0.68;0.55;;;;;;;6.28;100.00;100709.34;6130706;23;20021;-88
2024/01/07 01:45:02;;;;;;;;;;;;;;;;;;;;;
2024/01/07 02:00:44;;;;;;;0.90;0.30;;;;;;;6.27;100.00;100687.00;6157773;23;20476;-90
2024/01/07 02:03:18;;;;;;;0.55;0.22;;;;;;;6.31;100.00;100694.88;6155417;23;20017;-88
2024/01/07 02:05:52;;;;;;;1.23;0.30;;;;;;;6.22;100.00;100697.91;6151332;23;20072;-92
2024/01/07 02:08:22;;;;;;;1.50;0.22;;;;;;;6.07;100.00;100696.41;6159285;23;20028;-91
2024/01/07 02:11:04;;;;;;;1.60;0.40;;;;;;;6.06;100.00;100710.03;6158371;23;20017;-91
2024/01/07 03:35:08;;;;;;;3.85;1.20;;;;;;;6.11;100.00;100759.06;6170635;22;20141;-90
2024/01/07 03:37:37;;;;;;;1.08;0.80;;;;;;;6.14;100.00;100766.03;6161112;23;20021;-93
2024/01/07 03:42:54;;;;;;;0.98;0.63;;;;;;;6.20;100.00;100776.59;6158269;23;20026;-91
2024/01/07 03:45:29;;;;;;;6.32;0.55;;;;;;;6.19;100.00;100772.28;6159017;23;20020;-91
2024/01/07 03:47:58;;;;;;;2.47;0.73;;;;;;;6.12;100.00;100767.66;6158710;23;20446;-93
2024/01/07 03:50:30;;;;;;;1.98;0.68;;;;;;;6.06;100.00;100763.97;6158953;23;20029;-91
2024/01/07 03:53:01;;;;;;;2.40;0.90;;;;;;;6.05;100.00;100757.09;6163771;23;20025;-93
2024/01/07 03:55:37;;;;;;;3.08;0.90;;;;;;;5.98;100.00;100755.03;6161769;23;20025;-94
2024/01/07 03:58:07;;;;;;;0.90;0.60;;;;;;;6.01;100.00;100765.44;6167796;23;20020;-92
2024/01/07 04:00:38;;;;;;;3.15;0.77;;;;;;;6.01;100.00;100774.84;6165113;23;20096;-90
2024/01/07 04:03:13;;;;;;;2.38;0.88;;;;;;;6.03;100.00;100765.53;6170712;23;20070;-92
2024/01/07 04:13:59;;;;;;;4.53;0.90;;;;;;;5.91;100.00;100781.19;6169184;23;20032;-90
2024/01/07 04:16:33;;;;;;;1.88;0.73;;;;;;;5.91;100.00;100781.19;6165555;23;20069;-91
2024/01/07 04:19:04;;;;;;;3.15;0.85;;;;;;;5.98;100.00;100783.28;6160545;23;20033;-91
2024/01/07 04:21:33;;;;;;;2.25;1.00;;;;;;;5.95;100.00;100767.72;6163905;23;20033;-91
2024/01/07 04:24:02;;;;;;;4.72;0.80;;;;;;;5.98;100.00;100780.72;6163542;23;20026;-90
2024/01/07 04:26:31;;;;;;;2.03;0.90;;;;;;;5.95;100.00;100785.69;6155598;23;20056;-89
2024/01/07 04:29:12;;;;;;;;;;;;;;;;;;;;;
2024/01/07 04:31:42;;;;;;;4.07;1.63;;;;;;;5.96;100.00;100782.34;6157503;23;20033;-92
2024/01/07 04:34:10;;;;;;;1.30;0.93;;;;;;;5.88;100.00;100778.47;6158082;23;20093;-91
2024/01/07 04:36:43;;;;;;;2.80;1.17;;;;;;;5.78;100.00;100777.16;6167379;23;20017;-95
2024/01/07 04:39:14;;;;;;;5.15;1.10;;;;;;;5.78;100.00;100789.09;6172290;23;20022;-91
2024/01/07 04:41:47;;;;;;;1.30;0.90;;;;;;;5.81;100.00;100797.81;6161443;23;20029;-92
2024/01/07 04:44:17;;;;;;;2.30;1.27;;;;;;;5.83;100.00;100795.34;6157936;23;20294;-89
2024/01/07 04:46:56;;;;;;;2.92;1.15;;;;;;;5.82;100.00;100797.03;6156785;23;20117;-90
2024/01/07 04:49:26;;;;;;;1.85;0.77;;;;;;;5.81;100.00;100792.69;6158564;23;20489;-91
2024/01/07 04:54:43;;;;;;;1.95;1.30;;;;;;;5.71;100.00;100789.63;6165024;23;20025;-93
2024/01/07 05:00:30;;;;;;;4.22;1.02;;;;;;;5.72;100.00;100802.50;6170746;23;20050;-90
2024/01/07 05:02:59;;;;;;;1.25;0.60;;;;;;;5.77;100.00;100807.88;6173282;23;20018;-92
2024/01/07 05:05:33;;;;;;;0.77;0.52;;;;;;;5.80;100.00;100801.22;6165018;23;20025;-93
2024/01/07 05:10:45;;;;;;;2.42;0.82;;;;;;;5.91;100.00;100804.31;6160354;23;20021;-92
2024/01/07 05:13:15;;;;;;;1.60;0.70;;;;;;;5.92;100.00;100816.34;6159344;23;20053;-89
2024/01/07 05:16:00;;;;;;;4.43;1.00;;;;;;;5.95;100.00;100816.50;6164517;23;20022;-88
2024/01/07 05:18:29;;;;;;;2.05;0.65;;;;;;;5.99;100.00;100813.28;6157509;23;20022;-90
2024/01/07 05:21:01;;;;;;;1.35;1.13;;;;;;;6.00;100.00;100815.06;6163301;23;20017;-90
2024/01/07 05:23:33;;;;;;;1.27;0.80;;;;;;;6.02;100.00;100808.28;6161078;23;20027;-88
2024/01/07 05:26:12;;;;;;;0.75;0.57;;;;;;;5.96;100.00;100810.59;6158144;23;20446;-92
2024/01/07 05:28:41;;;;;;;1.88;0.80;;;;;;;5.96;100.00;100818.28;6166703;23;20022;-89
2024/01/07 05:31:18;;;;;;;0.88;0.57;;;;;;;5.94;100.00;100817.31;6157546;23;20020;-90
2024/01/07 05:33:50;;;;;;;5.55;0.75;;;;;;;5.88;100.00;100811.84;6155357;23;20033;-90
2024/01/07 05:36:19;;;;;;;3.45;0.70;;;;;;;5.87;100.00;100826.38;6155433;23;20041;-89
2024/01/07 05:38:56;;;;;;;6.80;0.45;;;;;;;5.89;100.00;100821.34;6156981;23;20113;-90
2024/01/07 05:41:25;;;;;;;3.67;0.95;;;;;;;5.89;100.00;100805.94;6155574;23;20021;-88
2024/01/07 05:43:54;;;;;;;3.63;0.80;;;;;;;5.89;100.00;100821.34;6155791;23;20025;-90
2024/01/07 05:46:28;;;;;;;4.88;0.90;;;;;;;5.82;100.00;100801.31;6156355;23;20048;-91
2024/01/07 05:48:57;;;;;;;6.03;0.68;;;;;;;5.86;100.00;100813.47;6157595;23;20168;-92
2024/01/07 05:51:27;;;;;;;0.82;0.43;;;;;;;5.86;100.00;100821.16;6163248;23;20029;-90
2024/01/07 05:53:56;;;;;;;3.90;0.88;;;;;;;5.88;100.00;100824.69;6157074;23;20021;-90
2024/01/07 05:56:32;;;;;;;1.60;0.70;;;;;;;5.85;100.00;100811.72;6170488;23;20022;-90
2024/01/07 05:59:02;;;;;;;4.07;0.75;;;;;;;5.81;100.00;100817.50;6184037;23;20025;-89
2024/01/07 06:01:34;;;;;;;1.10;0.90;;;;;;;5.81;100.00;100822.63;6196754;23;20096;-90
2024/01/07 06:04:03;;;;;;;2.13;0.60;;;;;;;5.75;100.00;100822.31;6193706;23;20045;-90
2024/01/07 06:06:37;;;;;;;4.43;0.68;;;;;;;5.82;100.00;100826.97;6192778;23;20021;-90
2024/01/07 06:09:06;;;;;;;1.08;0.73;;;;;;;5.83;100.00;100827.03;6192000;23;20023;-90
2024/01/07 06:11:35;;;;;;;0.70;0.45;;;;;;;5.82;100.00;100835.56;6193760;23;20100;-89
2024/01/07 06:14:04;;;;;;;4.00;0.90;;;;;;;5.83;100.00;100844.13;6195986;23;20048;-89
2024/01/07 06:16:40;;;;;;;1.48;0.70;;;;;;;5.80;100.00;100836.28;6203500;23;20080;-89
2024/01/07 06:19:09;;;;;;;0.70;0.43;;;;;;;5.80;100.00;100831.16;6200207;23;20027;-91
2024/01/07 06:21:39;;;;;;;3.60;0.65;;;;;;;5.84;100.00;100843.31;6207607;23;20021;-90
2024/01/07 06:24:14;;;;;;;3.85;0.55;;;;;;;5.83;100.00;100841.56;6208556;23;20035;-89
2024/01/07 06:26:46;;;;;;;0.52;0.50;;;;;;;5.85;100.00;100850.22;6208766;23;20036;-89
2024/01/07 06:29:20;;;;;;;5.28;0.80;;;;;;;5.87;100.00;100852.06;6210039;23;20075;-90
2024/01/07 06:34:37;;;;;;;2.90;1.13;;;;;;;5.90;100.00;100853.91;6194175;23;20017;-90
2024/01/07 06:37:08;;;;;;;2.08;0.57;;;;;;;5.88;100.00;100865.78;6197261;23;20048;-90
2024/01/07 06:39:46;;;;;;;0.77;0.55;;;;;;;5.83;100.00;100867.25;6194639;23;20077;-90
2024/01/07 06:42:15;;;;;;;1.42;0.90;;;;;;;5.85;100.00;100863.06;6195169;23;20044;-89
2024/01/07 06:44:45;;;;;;;6.90;1.02;;;;;;;5.86;100.00;100860.59;6196389;23;20025;-90
2024/01/07 06:47:18;;;;;;;4.70;1.00;;;;;;;5.86;100.00;100857.13;6196887;23;20032;-90
2024/01/07 06:49:47;;;;;;;2.40;0.60;;;;;;;5.91;100.00;100862.47;6197786;23;20048;-91
2024/01/07 06:52:16;;;;;;;1.40;0.73;;;;;;;5.96;100.00;100861.06;6196817;23;20027;-90
2024/01/07 06:54:45;;;;;;;1.50;0.40;;;;;;;5.98;100.00;100873.19;6196066;23;20056;-91
2024/01/07 06:57:28;;;;;;;4.20;0.80;;;;;;;6.00;100.00;100865.53;6206762;23;20025;-93
2024/01/07 06:59:58;;;;;;;2.50;0.60;;;;;;;5.99;100.00;100856.97;6206234;23;20457;-89
2024/01/07 07:02:29;;;;;;;0.77;0.45;;;;;;;5.86;100.00;100851.97;6198848;23;20021;-92
2024/01/07 07:05:16;;;;;;;0.50;0.47;;;;;;;5.84;100.00;100861.28;6188334;23;20017;-91
2024/01/07 07:07:45;;;;;;;2.55;0.47;;;;;;;5.80;100.00;100860.28;6187652;23;20020;-89
2024/01/07 07:10:14;;;;;;;4.43;0.93;;;;;;;5.78;100.00;100858.44;6190205;23;20025;-91
2024/01/07 07:12:50;;;;;;;2.28;0.80;;;;;;;5.73;100.00;100855.63;6193524;23;20091;-92
2024/01/07 07:15:19;;;;;;;0.80;0.40;;;;;;;5.66;100.00;100853.56;6190633;23;20069;-91
2024/01/07 07:17:50;;;;;;;1.88;0.32;;;;;;;5.71;100.00;100866.63;6191619;23;20017;-93
2024/01/07 07:20:29;;;;;;;2.15;0.32;;;;;;;5.73;100.00;100854.75;6194077;23;20088;-92
2024/01/07 07:22:58;;;;;;;1.92;0.80;;;;;;;5.71;100.00;100857.25;6204964;23;20032;-92
2024/01/07 07:25:28;;;;;;;1.90;0.50;;;;;;;5.69;100.00;100857.97;6195935;23;20104;-90
2024/01/07 07:28:08;;;;;;;;;;;;;;;;;;;;;
2024/01/07 07:30:38;;;;;;;0.55;0.45;;;;;;;5.68;100.00;100862.22;6190201;23;20031;-93
2024/01/07 07:33:08;;;;;;;0.82;0.40;;;;;;;5.64;100.00;100858.59;6189825;23;20027;-91
2024/01/07 07:35:38;;;;;;;0.60;0.32;;;;;;;5.66;100.00;100874.97;6187597;23;20020;-90
2024/01/07 07:38:10;;;;;;;1.75;0.50;;;;;;;5.64;100.00;100866.31;6188335;23;20025;-92
2024/01/07 07:40:39;;;;;;;0.95;0.30;;;;;;;5.64;100.00;100868.88;6188598;23;20055;-92
2024/01/07 07:43:08;;;;;;;0.75;0.47;;;;;;;5.62;100.00;100870.47;6188549;23;20099;-89
2024/01/07 07:45:39;;;;;;;1.83;0.45;;;;;;;5.56;100.00;100861.59;6187691;23;20017;-90
2024/01/07 07:48:13;;;;;;;4.63;0.73;;;;;;;5.49;100.00;100860.38;6188565;23;20025;-90
2024/01/07 07:50:42;;;;;;;2.63;1.15;;;;;;;5.47;100.00;100861.97;6190132;23;20116;-92
2024/01/07 07:53:11;;;;;;;1.95;0.47;;;;;;;5.44;100.00;100857.59;6190343;23;20025;-92
2024/01/07 07:55:40;;;;;;;2.55;0.50;;;;;;;5.46;100.00;100873.06;6193895;23;20021;-91
2024/01/07 07:58:17;;;;;;;4.38;0.80;;;;;;;5.40;100.00;100863.34;6192700;23;20021;-91
2024/01/07 08:00:46;;;;;;;2.10;0.60;;;;;;;5.40;100.00;100871.03;6196310;23;20545;-91
2024/01/07 08:03:17;;;;;;;2.28;0.52;;;;;;;5.37;100.00;100864.91;6197042;23;20017;-91
2024/01/07 08:08:28;;;;;;;0.70;0.50;;;;;;;5.25;100.00;100858.31;6188655;23;20103;-90
2024/01/07 08:10:57;;;;;;;1.75;0.38;;;;;;;5.23;100.00;100867.59;6190115;23;20028;-90
2024/01/07 08:13:39;;;;;;;1.13;0.28;;;;;;;5.21;100.00;100866.66;6189004;23;20021;-91
2024/01/07 08:16:10;;;;;;;2.40;0.60;;;;;;;5.13;100.00;100860.25;6189397;23;20025;-92
2024/01/07 08:18:41;;;;;;;0.43;0.30;;;;;;;5.06;100.00;100858.13;6188918;23;20020;-90
2024/01/07 08:21:13;;;;;;;0.80;0.47;;;;;;;5.07;100.00;100861.59;6191230;23;20043;-90
2024/01/07 08:23:42;;;;;;;2.00;0.45;;;;;;;5.07;100.00;100870.16;6191106;23;20029;-92
2024/01/07 08:26:12;;;;;;;1.13;0.55;;;;;;;5.06;100.00;100863.25;6192130;23;20040;-90
2024/01/07 08:28:41;;;;;;;2.75;0.77;;;;;;;5.04;100.00;100864.88;6189952;23;20035;-91
2024/01/07 08:31:10;;;;;;;2.70;0.68;;;;;;;5.01;100.00;100867.28;6187604;23;20017;-90
2024/01/07 08:33:41;;;;;;;2.92;0.38;;;;;;;5.00;100.00;100875.78;6187333;23;20028;-91
2024/01/07 08:36:13;;;;;;;1.23;0.60;;;;;;;4.94;100.00;100865.19;6186737;23;20079;-92
2024/01/07 08:38:41;;;;;;;2.00;0.65;;;;;;;4.91;100.00;100862.47;6189919;23;20044;-90
2024/01/07 08:41:24;;;;;;;0.70;0.32;;;;;;;4.92;100.00;100859.09;6186428;23;20052;-89
2024/01/07 08:43:52;;;;;;;;;;;;;;;4.79;100.00;100868.69;6187334;23;20080;-89
2024/01/07 08:46:23;;;;;;;3.63;0.73;;;;;;;4.76;100.00;100867.63;6186477;23;19916;-90
2024/01/07 08:48:55;;;;;;;0.88;0.38;;;;;;;4.77;100.00;100875.41;6186293;23;20025;-89
2024/01/07 08:51:24;;;;;;;2.87;0.67;;;;;;;4.71;100.00;100874.19;6185988;23;20111;-90
2024/01/07 08:53:53;;;;;;;2.33;0.68;;;;;;;4.66;100.00;100879.06;6187270;23;20017;-89
2024/01/07 08:56:23;;;;;;;2.47;0.40;;;;;;;4.62;100.00;100875.44;6186818;23;20021;-88
2024/01/07 08:58:52;;;;;;;1.95;0.40;;;;;;;4.68;100.00;100886.84;6187461;23;20024;-90
2024/01/07 09:01:22;;;;;;;0.82;0.22;;;;;;;4.64;100.00;100869.53;6186809;23;20052;-91
2024/01/07 09:03:53;;;;;;;1.48;0.45;;;;;;;4.62;100.00;100889.94;6186023;23;20048;-90
2024/01/07 09:06:21;;;;;;;0.20;0.20;;;;;;;4.52;100.00;100882.53;6186920;23;20017;-90
2024/01/07 09:08:50;;;;;;;0.88;0.22;;;;;;;4.50;100.00;100889.25;6186887;23;20027;-91
2024/01/07 09:11:26;;;;;;;3.63;0.77;;;;;;;4.51;100.00;100891.00;6186735;23;20075;-91
2024/01/07 09:13:55;;;;;;;1.92;0.40;;;;;;;4.55;100.00;100898.97;6186688;23;20029;-91
2024/01/07 09:16:24;;;;;;;0.75;0.25;;;;;;;4.58;100.00;100895.69;6191098;23;20040;-91
2024/01/07 09:18:55;;;;;;;1.30;0.40;;;;;;;4.61;100.00;100891.63;6186338;23;20025;-91
2024/01/07 09:21:31;;;;;;;0.93;0.47;;;;;;;4.62;100.00;100889.94;6187654;23;20107;-91
2024/01/07 09:24:00;;;;;;;0.80;0.38;;;;;;;4.63;100.00;100889.16;6187572;23;20021;-90
2024/01/07 09:26:29;;;;;;;7.72;1.15;;;;;;;4.66;100.00;100891.88;6188583;23;20044;-91
2024/01/07 09:28:59;;;;;;;4.63;0.52;;;;;;;4.70;100.00;100901.50;6186938;23;20023;-91
2024/01/07 09:31:30;;;;;;;2.03;0.45;;;;;;;4.70;100.00;100896.38;6188099;23;20033;-89
2024/01/07 09:34:02;;;;;;;2.08;0.95;;;;;;;4.71;100.00;100899.81;6187867;23;20021;-91
2024/01/07 09:36:32;;;;;;;2.83;0.70;;;;;;;4.62;100.00;100895.06;6188378;23;20028;-92
2024/01/07 09:39:04;;;;;;;3.33;0.80;;;;;;;4.56;100.00;100900.75;6188272;23;20079;-91
2024/01/07 09:41:36;;;;;;;0.70;0.40;;;;;;;4.56;100.00;100910.13;6186476;23;20032;-92
2024/01/07 09:44:07;;;;;;;1.03;0.57;;;;;;;4.60;100.00;100912.03;6188358;23;20121;-92
2024/01/07 09:46:39;;;;;;;1.48;0.90;;;;;;;4.63;100.00;100909.66;6186084;23;20055;-91
2024/01/07 09:49:11;;;;;;;2.50;0.50;;;;;;;4.69;100.00;100917.66;6189049;23;20048;-91
2024/01/07 09:51:42;;;;;;;3.47;0.73;;;;;;;4.71;100.00;100921.19;6187868;23;20021;-91
2024/01/07 09:54:14;;;;;;;0.55;0.30;;;;;;;4.71;100.00;100907.50;6191062;23;20020;-90
2024/01/07 09:56:52;;;;;;;2.17;0.70;;;;;;;4.80;100.00;100915.72;6187361;23;20468;-89
2024/01/07 09:59:21;;;;;;;2.13;0.98;;;;;;;4.87;100.00;100927.19;6186771;23;20021;-90
2024/01/07 10:01:52;;;;;;;1.65;0.35;;;;;;;4.87;100.00;100922.06;6188039;23;20021;-91
2024/01/07 10:04:23;;;;;;;1.48;0.57;;;;;;;4.91;100.00;100929.13;6187890;23;20404;-90
2024/01/07 10:06:54;;;;;;;2.13;0.68;;;;;;;4.88;100.00;100927.28;6188922;23;20017;-91
2024/01/07 10:09:26;;;;;;;6.13;1.00;;;;;;;4.88;100.00;100940.09;6188378;23;20021;-92
2024/01/07 10:11:55;;;;;;;2.95;0.50;;;;;;;4.88;100.00;100940.09;6189447;23;20017;-92
2024/01/07 10:14:24;;;;;;;1.48;1.20;;;;;;;4.87;100.00;100940.88;6188634;23;20024;-90
2024/01/07 10:17:00;;;;;;;5.15;0.57;;;;;;;4.91;100.00;100939.38;6187872;23;20060;-90
2024/01/07 10:19:32;;;;;;;2.35;0.75;;;;;;;4.90;100.00;100946.19;6189552;23;20396;-91
2024/01/07 10:22:05;;;;;;;2.70;0.88;;;;;;;4.88;100.00;100949.44;6189212;23;20021;-91
2024/01/07 10:24:41;;;;;;;1.08;0.43;;;;;;;4.88;100.00;100950.34;6189578;23;20126;-90
2024/01/07 10:27:10;;;;;;;1.20;0.43;;;;;;;4.89;100.00;100958.94;6188869;23;20051;-91
2024/01/07 10:29:39;;;;;;;1.00;0.65;;;;;;;4.90;100.00;100948.75;6191604;23;20043;-90
2024/01/07 10:32:17;;;;;;;2.22;0.70;;;;;;;4.96;100.00;100966.16;6191891;23;20096;-89
2024/01/07 10:34:51;;;;;;;4.60;1.05;;;;;;;4.98;100.00;100972.25;6189859;23;20021;-91
2024/01/07 10:37:20;;;;;;;2.45;0.65;;;;;;;5.00;100.00;100966.41;6189318;23;20025;-90
2024/01/07 10:40:02;;;;;;;0.93;0.43;;;;;;;5.00;100.00;100971.53;6186674;23;20159;-90
2024/01/07 10:42:33;;;;;;;6.25;1.20;;;;;;;5.01;100.00;100968.16;6188010;23;20025;-90
2024/01/07 10:45:02;;;;;;;2.33;1.20;;;;;;;4.99;100.00;100963.75;6185853;23;20025;-91
2024/01/07 10:47:34;;;;;;;2.58;1.15;;;;;;;5.02;100.00;100966.50;6187262;23;20017;-91
2024/01/07 10:50:06;;;;;;;2.90;1.55;;;;;;;5.02;100.00;100967.38;6185734;23;20028;-91
2024/01/07 10:52:38;;;;;;;2.97;1.10;;;;;;;5.01;100.00;100972.41;6187360;23;20031;-90
2024/01/07 10:55:12;;;;;;;4.05;0.88;;;;;;;4.94;100.00;100965.19;6188233;23;20063;-90
2024/01/07 10:57:47;;;;;;;2.78;1.55;;;;;;;4.97;100.00;100973.03;6187331;23;20032;-92
2024/01/07 11:00:18;;;;;;;6.22;1.85;;;;;;;4.92;100.00;100971.91;6186489;23;20021;-90
2024/01/07 11:03:01;;;;;;;5.73;2.33;;;;;;;4.85;100.00;100959.53;6187586;23;20029;-90
2024/01/07 11:05:42;;;;;;;7.63;1.63;;;;;;;4.74;100.00;100957.28;6186710;23;20023;-93
2024/01/07 11:08:22;;;;;;;5.10;1.73;;;;;;;4.77;100.00;100970.25;6188732;23;20017;-92
2024/01/07 11:10:56;;;;;;;4.85;1.70;;;;;;;4.79;100.00;100967.78;6190128;23;20023;-91
2024/01/07 11:13:41;;;;;;;6.43;2.28;;;;;;;4.77;100.00;100969.38;6187745;23;20052;-91
2024/01/07 11:16:12;;;;;;;2.83;1.30;;;;;;;4.70;100.00;100964.72;6189463;23;20020;-92
2024/01/07 11:18:43;;;;;;;3.15;1.70;;;;;;;4.69;100.00;100963.81;6188515;23;20024;-92
2024/01/07 11:21:24;;;;;;;4.22;1.20;;;;;;;4.73;100.00;100965.75;6188951;23;20454;-91
2024/01/07 11:23:54;;;;;;;4.63;1.20;;;;;;;4.77;100.00;100972.81;6189161;23;20021;-92
2024/01/07 11:26:23;;;;;;;4.78;1.95;;;;;;;4.74;100.00;100982.91;6188573;23;20077;-91
2024/01/07 11:29:03;;;;;;;4.00;1.27;;;;;;;4.76;100.00;100982.97;6190731;23;20100;-93
2024/01/07 11:31:56;;;;;;;8.00;1.75;;;;;;;4.76;100.00;100991.53;6189102;23;20043;-92
2024/01/07 11:34:49;;;;;;;3.80;1.83;;;;;;;4.77;100.00;100988.19;6189473;23;20037;-90
2024/01/07 11:37:21;;;;;;;8.38;1.52;;;;;;;4.79;100.00;100994.31;6187316;23;20079;-91
2024/01/07 11:39:51;;;;;;;10.05;1.90;;;;;;;4.81;100.00;100992.72;6186511;23;20024;-90
2024/01/07 11:42:20;;;;;;;5.53;1.42;;;;;;;4.85;100.00;100980.06;6187083;23;20080;-91
2024/01/07 11:44:57;;;;;;;6.00;1.25;;;;;;;4.90;100.00;100976.06;6186783;23;20079;-92
2024/01/07 11:47:27;;;;;;;6.40;1.70;;;;;;;4.92;100.00;100977.03;6190940;23;20104;-91
2024/01/07 11:49:56;;;;;;;6.65;1.75;;;;;;;4.95;100.00;100978.09;6186836;23;20075;-91
2024/01/07 11:52:31;;;;;;;8.25;1.35;;;;;;;4.99;100.00;100974.91;6187514;23;20013;-91
2024/01/07 11:55:00;;;;;;;6.03;1.45;;;;;;;5.00;100.00;100973.22;6186776;23;20457;-92
2024/01/07 11:57:29;;;;;;;3.67;1.27;;;;;;;5.02;100.00;100979.31;6186920;23;20092;-91
2024/01/07 11:59:59;;;;;;;5.28;1.48;;;;;;;5.00;100.00;100975.78;6186589;23;20036;-91
2024/01/07 12:02:30;;;;;;;3.85;0.80;;;;;;;5.03;100.00;100981.06;6182513;23;20444;-90
2024/01/07 12:05:07;;;;;;;2.47;1.33;;;;;;;5.03;100.00;100986.22;6189544;23;20028;-91
2024/01/07 12:07:38;;;;;;;3.78;1.00;;;;;;;5.01;100.00;100987.78;6189922;23;20073;-91
2024/01/07 12:10:13;;;;;;;3.53;1.30;;;;;;;4.98;100.00;100985.06;6190447;23;20056;-90
2024/01/07 12:13:15;;;;;;;2.58;1.20;;;;;;;5.00;100.00;100991.19;6202209;23;20021;-90
2024/01/07 12:21:33;;;;;;;1.45;0.90;;;;;;;5.08;100.00;100992.47;6235963;23;20031;-91
2024/01/07 12:24:06;;;;;;;3.08;0.82;;;;;;;5.07;100.00;100993.28;6217590;23;20017;-90
2024/01/07 12:26:37;;;;;;;1.67;1.00;;;;;;;5.09;100.00;101001.94;6220008;23;20083;-90
2024/01/07 12:29:18;;;;;;;1.50;0.98;;;;;;;5.11;100.00;101000.34;6218479;23;20024;-90
2024/01/07 12:31:47;;;;;;;3.65;0.85;;;;;;;5.06;100.00;100988.06;6216183;23;20020;-90
2024/01/07 12:34:18;;;;;;;2.13;0.82;;;;;;;5.03;100.00;100981.94;6216360;23;20029;-90
2024/01/07 12:37:00;;;;;;;1.38;0.80;;;;;;;5.12;100.00;100988.41;6215857;23;20127;-93
2024/01/07 12:39:33;;;;;;;2.83;0.98;;;;;;;5.14;100.00;100992.81;6216869;23;20103;-90
2024/01/07 12:42:03;;;;;;;3.20;1.08;;;;;;;5.15;100.00;100997.13;6214599;23;20024;-91
2024/01/07 12:44:36;;;;;;;7.18;1.52;;;;;;;5.16;100.00;100998.91;6216433;23;20091;-91
2024/01/07 12:47:05;;;;;;;3.47;1.13;;;;;;;5.13;100.00;100991.06;6216155;23;20025;-90
2024/01/07 12:49:34;;;;;;;2.85;1.30;;;;;;;5.10;100.00;100993.44;6215143;23;20017;-90
2024/01/07 12:52:06;;;;;;;2.33;1.10;;;;;;;5.03;100.00;100991.34;6215606;23;20074;-90
2024/01/07 12:54:45;;;;;;;2.65;0.90;;;;;;;5.05;100.00;100994.88;6215478;23;20017;-89
2024/01/07 12:57:14;;;;;;;3.03;1.13;;;;;;;5.04;100.00;100993.13;6215868;23;20065;-90
2024/01/07 12:59:43;;;;;;;2.30;1.30;;;;;;;5.06;100.00;101006.88;6215334;23;20056;-91
2024/01/07 13:02:12;;;;;;;2.00;0.60;;;;;;;5.03;100.00;101005.03;6218064;23;20099;-91
2024/01/07 13:04:41;;;;;;;1.95;1.10;;;;;;;5.10;100.00;101010.50;6218117;23;20023;-90
2024/01/07 13:07:10;;;;;;;1.38;0.75;;;;;;;5.09;100.00;101017.34;6216558;23;20023;-91
2024/01/07 13:09:41;;;;;;;1.98;0.70;;;;;;;5.08;100.00;101020.69;6215848;23;20016;-91
2024/01/07 13:12:18;;;;;;;6.28;1.40;;;;;;;5.05;100.00;101017.94;6218162;23;20029;-90
2024/01/07 13:14:48;;;;;;;2.90;1.15;;;;;;;5.06;100.00;101018.81;6218308;23;20038;-91
2024/01/07 13:17:17;;;;;;;3.22;1.20;;;;;;;5.04;100.00;101013.63;6216713;23;20016;-90
2024/01/07 13:19:47;;;;;;;6.88;1.10;;;;;;;5.04;100.00;101011.94;6217808;23;20096;-90
2024/01/07 13:22:21;;;;;;;6.45;1.80;;;;;;;5.00;100.00;101009.13;6221410;23;20024;-91
2024/01/07 13:24:54;;;;;;;3.55;1.27;;;;;;;5.10;100.00;101019.09;6216969;23;20021;-92
2024/01/07 13:27:24;;;;;;;2.80;0.63;;;;;;;5.10;100.00;101011.38;6217680;23;20068;-90
2024/01/07 13:29:58;;;;;;;1.67;0.80;;;;;;;5.12;100.00;101022.63;6218622;23;20024;-91
2024/01/07 13:32:27;;;;;;;3.40;1.00;;;;;;;5.13;100.00;101023.50;6217127;23;20021;-91
2024/01/07 13:34:56;;;;;;;4.93;1.20;;;;;;;5.13;100.00;101020.94;6216237;23;20048;-91
2024/01/07 13:37:25;;;;;;;3.75;1.45;;;;;;;5.12;100.00;101035.44;6215607;23;20047;-91
2024/01/07 13:40:03;;;;;;;3.88;1.40;;;;;;;5.05;100.00;101023.09;6215859;23;20020;-91
2024/01/07 13:42:33;;;;;;;5.43;1.75;;;;;;;5.05;100.00;101030.78;6219566;23;20070;-92
2024/01/07 13:45:02;;;;;;;4.07;1.25;;;;;;;5.06;100.00;101036.78;6215896;23;20084;-89
2024/01/07 13:47:31;;;;;;;2.40;1.23;;;;;;;5.08;100.00;101040.31;6217404;23;20016;-91
2024/01/07 13:50:00;;;;;;;6.43;1.75;;;;;;;5.08;100.00;101036.06;6216251;23;20023;-91
2024/01/07 13:52:31;;;;;;;2.28;1.17;;;;;;;5.09;100.00;101037.84;6214811;23;20099;-91
2024/01/07 13:55:03;;;;;;;2.35;1.33;;;;;;;5.06;100.00;101037.66;6216182;23;20103;-91
2024/01/07 13:57:32;;;;;;;2.33;1.02;;;;;;;5.00;100.00;101043.34;6215324;23;20333;-91
2024/01/07 14:00:08;;;;;;;1.73;1.20;;;;;;;4.96;100.00;101041.41;6216038;23;20159;-91
2024/01/07 14:02:40;;;;;;;1.77;1.10;;;;;;;4.93;100.00;101040.34;6217021;23;20027;-92
2024/01/07 14:05:11;;;;;;;1.80;0.90;;;;;;;4.93;100.00;101043.78;6215650;23;20020;-91
2024/01/07 14:07:41;;;;;;;2.65;0.98;;;;;;;4.93;100.00;101055.75;6216791;23;20389;-90
2024/01/07 14:10:15;;;;;;;1.15;0.60;;;;;;;4.92;100.00;101053.97;6216560;23;20518;-91
2024/01/07 14:12:44;;;;;;;2.17;0.90;;;;;;;4.95;100.00;101054.16;6216763;23;20072;-91
2024/01/07 14:15:13;;;;;;;2.22;0.90;;;;;;;4.98;100.00;101049.19;6216657;23;20043;-92
2024/01/07 14:17:45;;;;;;;3.95;0.65;;;;;;;4.94;100.00;101053.25;6216194;23;20044;-92
2024/01/07 14:20:14;;;;;;;4.47;1.20;;;;;;;4.95;100.00;101057.59;6220115;23;20023;-91
2024/01/07 14:22:43;;;;;;;2.13;1.08;;;;;;;4.96;100.00;101048.22;6215200;23;20079;-92
2024/01/07 14:25:15;;;;;;;4.03;1.20;;;;;;;4.96;100.00;101050.78;6216999;23;20099;-91
2024/01/07 14:27:57;;;;;;;1.08;0.63;;;;;;;5.01;100.00;101059.59;6216293;23;20027;-91
2024/01/07 14:30:27;;;;;;;1.50;0.60;;;;;;;5.02;100.00;101066.53;6216752;23;20095;-91
2024/01/07 14:32:57;;;;;;;0.90;0.52;;;;;;;5.03;100.00;101063.16;6216886;23;20021;-91
2024/01/07 14:35:35;;;;;;;1.85;0.70;;;;;;;5.06;100.00;101068.44;6214882;23;20017;-91
2024/01/07 14:38:04;;;;;;;1.33;0.90;;;;;;;5.08;100.00;101066.84;6218260;23;20130;-91
2024/01/07 14:40:34;;;;;;;1.73;0.88;;;;;;;4.98;100.00;101055.19;6215923;23;20013;-90
2024/01/07 14:43:04;;;;;;;6.00;1.20;;;;;;;4.97;100.00;101065.34;6217404;23;20017;-91
2024/01/07 14:45:40;;;;;;;2.05;0.70;;;;;;;4.98;100.00;101069.69;6218295;23;20035;-91
2024/01/07 14:48:09;;;;;;;3.83;0.63;;;;;;;4.99;100.00;101066.31;6216704;23;20033;-91
2024/01/07 14:50:40;;;;;;;5.15;0.88;;;;;;;4.97;100.00;101065.34;6218444;23;20024;-90
2024/01/07 14:53:18;;;;;;;1.88;0.70;;;;;;;4.87;100.00;101055.38;6218151;23;20067;-90
2024/01/07 14:55:50;;;;;;;1.75;0.90;;;;;;;4.86;100.00;101059.63;6217219;23;20103;-91
2024/01/07 14:58:21;;;;;;;3.33;0.63;;;;;;;4.91;100.00;101067.59;6220449;23;20031;-90